Florence, Indiana
Current Conditions -  °F | °C
As of 6:52 PM on Sunday 21 Dec 2014 (Local Time) from KCVG Reporting Station
Scattered Clouds Scattered Clouds  
Wind Chill: 26°   Ceiling: Unl
Heat Index: 32°   Visibility: 8mi
Dew Point: 23°   Wind: 7mph
Humidity: 69%   Direction: 100°E
Pressure: 30.15"   Gusts: NA
Location:  38.78°N, 84.92°W
Report Text: KCVG 212352Z 10006KT 8SM SCT240 00/M05 A3015 RMK AO2 SLP216 T00001050 10033 21006 58007
Loading
Personal Weather Stations






























Interactive Weather Map New forecast layout! Learn more

10-Day Weather Forecast

Advertisements
Track Severe Weather on mobile